createdAt,value
2018-08-21T00:00:29.912Z,0
2018-08-21T00:01:39.882Z,0
2018-08-21T00:02:49.845Z,0
2018-08-21T00:03:59.563Z,0
2018-08-21T00:05:09.523Z,0
2018-08-21T00:06:19.490Z,0
2018-08-21T00:07:29.453Z,0
2018-08-21T00:08:39.168Z,0
2018-08-21T00:09:49.136Z,0
2018-08-21T00:10:58.586Z,0
2018-08-21T00:12:08.564Z,0
2018-08-21T00:13:18.018Z,0
2018-08-21T00:14:27.988Z,0
2018-08-21T00:15:37.952Z,0
2018-08-21T00:16:47.660Z,0
2018-08-21T00:17:57.633Z,0
2018-08-21T00:19:07.598Z,0
2018-08-21T00:20:17.586Z,0
2018-08-21T00:21:27.552Z,0
2018-08-21T00:22:37.264Z,0
2018-08-21T00:23:47.239Z,0
2018-08-21T00:24:56.953Z,0
2018-08-21T00:26:06.930Z,0
2018-08-21T00:27:16.904Z,0
2018-08-21T00:28:26.628Z,0
2018-08-21T00:29:36.597Z,0
2018-08-21T00:30:46.301Z,0
2018-08-21T00:31:56.274Z,0
2018-08-21T00:33:06.247Z,0
2018-08-21T00:34:16.204Z,0
2018-08-21T00:35:25.910Z,0
2018-08-21T00:36:35.875Z,0
2018-08-21T00:37:45.845Z,0
2018-08-21T00:38:55.838Z,0
2018-08-21T00:40:05.806Z,0
2018-08-21T00:41:15.791Z,0
2018-08-21T00:42:25.760Z,0
2018-08-21T00:43:35.729Z,0
2018-08-21T00:44:45.701Z,0
2018-08-21T00:45:55.406Z,0
2018-08-21T00:47:05.368Z,0
2018-08-21T00:48:15.342Z,0
2018-08-21T00:49:25.053Z,0
2018-08-21T00:50:35.025Z,0
2018-08-21T00:51:44.991Z,0
2018-08-21T00:52:54.964Z,0
2018-08-21T00:54:04.933Z,0
2018-08-21T00:55:14.917Z,0
2018-08-21T00:56:24.888Z,0
2018-08-21T00:57:34.597Z,0
2018-08-21T00:58:44.569Z,0
2018-08-21T00:59:54.543Z,0
2018-08-21T01:01:04.248Z,0
2018-08-21T01:02:14.000Z,0
2018-08-21T01:03:23.958Z,0
2018-08-21T01:04:33.931Z,0
2018-08-21T01:05:43.386Z,0
2018-08-21T01:06:53.380Z,0
2018-08-21T01:08:03.105Z,0
2018-08-21T01:09:12.821Z,0
2018-08-21T01:10:23.005Z,0
2018-08-21T01:11:32.970Z,0
2018-08-21T01:12:42.422Z,0
2018-08-21T01:13:52.412Z,0
2018-08-21T01:15:02.371Z,0
2018-08-21T01:16:12.077Z,0
2018-08-21T01:17:22.039Z,0
2018-08-21T01:18:32.007Z,0
2018-08-21T01:19:41.976Z,0
2018-08-21T01:20:51.688Z,0
2018-08-21T01:22:01.651Z,0
2018-08-21T01:23:11.372Z,0
2018-08-21T01:24:21.139Z,0
2018-08-21T01:25:31.118Z,0
2018-08-21T01:26:40.832Z,0
2018-08-21T01:27:50.812Z,0
2018-08-21T01:29:00.524Z,0
2018-08-21T01:30:10.485Z,0
2018-08-21T01:31:20.200Z,0
2018-08-21T01:32:29.649Z,0
2018-08-21T01:33:39.353Z,0
2018-08-21T01:34:49.321Z,0
2018-08-21T01:35:59.028Z,0
2018-08-21T01:37:08.988Z,0
2018-08-21T01:38:18.692Z,0
2018-08-21T01:39:28.668Z,0
2018-08-21T01:40:38.373Z,0
2018-08-21T01:41:48.331Z,0
2018-08-21T01:42:58.318Z,0
2018-08-21T01:44:08.029Z,0
2018-08-21T01:45:17.740Z,0
2018-08-21T01:46:27.705Z,0
2018-08-21T01:47:37.668Z,0
2018-08-21T01:48:47.632Z,0
2018-08-21T01:49:57.591Z,0
2018-08-21T01:51:07.293Z,0
2018-08-21T01:52:17.011Z,0
2018-08-21T01:53:26.727Z,0
2018-08-21T01:54:36.706Z,0
2018-08-21T01:55:46.425Z,0
2018-08-21T01:56:56.126Z,0
2018-08-21T01:58:06.104Z,0
2018-08-21T01:59:15.821Z,0
2018-08-21T02:00:25.782Z,0
2018-08-21T02:01:35.227Z,0
2018-08-21T02:02:45.199Z,0
2018-08-21T02:03:55.166Z,0
2018-08-21T02:05:04.871Z,0
2018-08-21T02:06:14.579Z,0
2018-08-21T02:07:24.025Z,0
2018-08-21T02:08:33.979Z,0
2018-08-21T02:09:43.439Z,0
2018-08-21T02:10:53.412Z,0
2018-08-21T02:12:03.120Z,0
2018-08-21T02:13:12.826Z,0
2018-08-21T02:14:22.800Z,0
2018-08-21T02:15:32.804Z,0
2018-08-21T02:16:42.777Z,0
2018-08-21T02:17:52.736Z,0
2018-08-21T02:19:02.693Z,0
2018-08-21T02:20:12.672Z,0
2018-08-21T02:21:22.378Z,0
2018-08-21T02:22:32.346Z,0
2018-08-21T02:23:42.054Z,0
2018-08-21T02:24:52.019Z,0
2018-08-21T02:26:01.982Z,0
2018-08-21T02:27:11.677Z,0
2018-08-21T02:28:21.386Z,0
2018-08-21T02:29:31.362Z,0
2018-08-21T02:30:40.810Z,0
2018-08-21T02:31:50.987Z,0
2018-08-21T02:33:01.107Z,0
2018-08-21T02:34:10.826Z,0
2018-08-21T02:35:20.529Z,0
2018-08-21T02:36:30.230Z,0
2018-08-21T02:37:40.203Z,0
2018-08-21T02:38:49.922Z,0
2018-08-21T02:39:59.891Z,0
2018-08-21T02:41:09.342Z,0
2018-08-21T02:42:19.308Z,0
2018-08-21T02:43:29.282Z,0
2018-08-21T02:44:38.983Z,0
2018-08-21T02:45:48.696Z,0
2018-08-21T02:46:58.660Z,0
2018-08-21T02:48:08.618Z,0
2018-08-21T02:49:18.327Z,0
2018-08-21T02:50:28.286Z,0
2018-08-21T02:51:37.998Z,0
2018-08-21T02:52:47.961Z,0
2018-08-21T02:53:57.664Z,0
2018-08-21T02:55:07.628Z,0
2018-08-21T02:56:17.338Z,0
2018-08-21T02:57:27.310Z,0
2018-08-21T02:58:36.750Z,0
2018-08-21T02:59:46.771Z,0
2018-08-21T03:00:56.466Z,0
2018-08-21T03:02:06.439Z,0
2018-08-21T03:03:16.414Z,0
2018-08-21T03:04:26.118Z,0
2018-08-21T03:05:36.088Z,0
2018-08-21T03:06:46.048Z,0
2018-08-21T03:07:55.776Z,0
2018-08-21T03:09:05.483Z,0
2018-08-21T03:10:14.934Z,0
2018-08-21T03:11:24.660Z,0
2018-08-21T03:12:34.703Z,0
2018-08-21T03:13:44.682Z,0
2018-08-21T03:14:54.129Z,0
2018-08-21T03:16:03.827Z,0
2018-08-21T03:17:13.781Z,0
2018-08-21T03:18:23.753Z,0
2018-08-21T03:19:33.715Z,0
2018-08-21T03:20:43.680Z,0
2018-08-21T03:21:53.679Z,0
2018-08-21T03:23:03.642Z,0
2018-08-21T03:24:13.604Z,0
2018-08-21T03:25:23.570Z,0
2018-08-21T03:26:33.539Z,4
2018-08-21T03:27:43.503Z,4
2018-08-21T03:28:53.212Z,4
2018-08-21T03:30:03.178Z,4
2018-08-21T03:31:13.164Z,4
2018-08-21T03:32:23.168Z,8
2018-08-21T03:33:33.141Z,8
2018-08-21T03:34:42.841Z,8
2018-08-21T03:35:52.803Z,12
2018-08-21T03:37:02.754Z,12
2018-08-21T03:38:12.760Z,16
2018-08-21T03:39:22.477Z,20
2018-08-21T03:40:32.438Z,24
2018-08-21T03:41:42.410Z,28
2018-08-21T03:42:52.379Z,32
2018-08-21T03:44:02.085Z,40
2018-08-21T03:45:11.855Z,48
2018-08-21T03:46:21.820Z,56
2018-08-21T03:47:31.862Z,68
2018-08-21T03:48:41.997Z,80
2018-08-21T03:49:51.970Z,92
2018-08-21T03:51:01.942Z,112
2018-08-21T03:52:11.906Z,124
2018-08-21T03:53:21.862Z,140
2018-08-21T03:54:31.306Z,160
2018-08-21T03:55:41.274Z,180
2018-08-21T03:56:51.248Z,196
2018-08-21T03:58:01.218Z,208
2018-08-21T03:59:11.183Z,212
2018-08-21T04:00:21.137Z,216
2018-08-21T04:01:31.117Z,220
2018-08-21T04:02:40.601Z,220
2018-08-21T04:03:50.557Z,224
2018-08-21T04:05:00.618Z,224
2018-08-21T04:06:10.684Z,228
2018-08-21T04:07:20.396Z,236
2018-08-21T04:08:30.362Z,248
2018-08-21T04:09:40.335Z,268
2018-08-21T04:10:50.299Z,288
2018-08-21T04:12:00.257Z,312
2018-08-21T04:13:10.216Z,344
2018-08-21T04:14:19.685Z,380
2018-08-21T04:15:29.393Z,424
2018-08-21T04:16:39.176Z,472
2018-08-21T04:17:48.883Z,532
2018-08-21T04:18:58.852Z,592
2018-08-21T04:20:08.814Z,648
2018-08-21T04:21:18.527Z,708
2018-08-21T04:22:28.233Z,776
2018-08-21T04:23:37.936Z,864
2018-08-21T04:24:47.847Z,956
2018-08-21T04:25:57.815Z,1052
2018-08-21T04:27:07.805Z,1140
2018-08-21T04:28:17.785Z,1220
2018-08-21T04:29:27.805Z,1284
2018-08-21T04:30:37.783Z,1344
2018-08-21T04:31:47.751Z,1396
2018-08-21T04:32:57.471Z,1460
2018-08-21T04:34:07.189Z,1532
2018-08-21T04:35:17.160Z,1612
2018-08-21T04:36:27.136Z,1688
2018-08-21T04:37:37.105Z,1768
2018-08-21T04:38:47.082Z,1868
2018-08-21T04:39:57.076Z,1980
2018-08-21T04:41:06.811Z,2084
2018-08-21T04:42:16.783Z,2200
2018-08-21T04:43:26.762Z,2300
2018-08-21T04:44:35.955Z,2416
2018-08-21T04:45:45.656Z,2540
2018-08-21T04:46:55.626Z,2664
2018-08-21T04:48:05.584Z,2784
2018-08-21T04:49:15.333Z,2912
2018-08-21T04:50:25.046Z,3036
2018-08-21T04:51:34.778Z,3176
2018-08-21T04:52:44.762Z,3296
2018-08-21T04:53:54.751Z,3412
2018-08-21T04:55:04.455Z,3584
2018-08-21T04:56:13.646Z,3684
2018-08-21T04:57:23.627Z,3772
2018-08-21T04:58:33.698Z,3872
2018-08-21T04:59:43.766Z,3980
2018-08-21T05:00:53.749Z,4076
2018-08-21T05:02:03.506Z,4188
2018-08-21T05:03:12.950Z,4268
2018-08-21T05:04:22.918Z,4308
2018-08-21T05:05:32.628Z,4344
2018-08-21T05:06:42.669Z,4424
2018-08-21T05:07:52.643Z,4540
2018-08-21T05:09:02.606Z,4668
2018-08-21T05:10:12.321Z,4796
2018-08-21T05:11:22.293Z,4932
2018-08-21T05:12:32.207Z,5012
2018-08-21T05:13:41.948Z,5108
2018-08-21T05:14:51.677Z,5204
2018-08-21T05:16:01.395Z,5336
2018-08-21T05:17:11.660Z,5476
2018-08-21T05:18:21.920Z,5616
2018-08-21T05:19:31.401Z,5724
2018-08-21T05:20:41.388Z,5828
2018-08-21T05:21:51.113Z,5944
2018-08-21T05:23:01.079Z,6060
2018-08-21T05:24:10.530Z,6184
2018-08-21T05:25:20.526Z,6304
2018-08-21T05:26:30.515Z,6432
2018-08-21T05:27:40.502Z,6556
2018-08-21T05:28:50.677Z,6700
2018-08-21T05:30:00.646Z,6896
2018-08-21T05:31:10.628Z,7112
2018-08-21T05:32:20.590Z,7292
2018-08-21T05:33:30.552Z,7408
2018-08-21T05:34:40.295Z,7456
2018-08-21T05:35:50.269Z,7508
2018-08-21T05:36:59.989Z,7560
2018-08-21T05:38:09.717Z,7556
2018-08-21T05:39:19.707Z,7520
2018-08-21T05:40:29.410Z,7424
2018-08-21T05:41:39.392Z,7292
2018-08-21T05:42:49.099Z,7284
2018-08-21T05:43:58.845Z,7336
2018-08-21T05:45:08.554Z,7436
2018-08-21T05:46:18.549Z,7472
2018-08-21T05:47:28.524Z,7616
2018-08-21T05:48:38.504Z,7668
2018-08-21T05:49:48.472Z,7748
2018-08-21T05:50:58.446Z,7868
2018-08-21T05:52:08.486Z,8000
2018-08-21T05:53:18.452Z,8076
2018-08-21T05:54:28.158Z,8124
2018-08-21T05:55:38.769Z,8112
2018-08-21T05:56:49.151Z,8204
2018-08-21T05:57:58.968Z,8272
2018-08-21T05:59:08.941Z,8340
2018-08-21T06:00:18.923Z,8416
2018-08-21T06:01:28.893Z,8500
2018-08-21T06:02:38.615Z,8588
2018-08-21T06:03:48.341Z,8672
2018-08-21T06:04:58.311Z,8752
2018-08-21T06:06:08.290Z,8836
2018-08-21T06:07:17.995Z,8924
2018-08-21T06:08:27.982Z,9012
2018-08-21T06:09:37.957Z,9088
2018-08-21T06:10:47.942Z,9148
2018-08-21T06:11:59.139Z,9204
2018-08-21T06:13:09.554Z,9264
2018-08-21T06:14:19.448Z,9336
2018-08-21T06:15:29.446Z,9424
2018-08-21T06:16:39.576Z,9528
2018-08-21T06:17:49.628Z,9660
2018-08-21T06:18:59.243Z,9768
2018-08-21T06:20:09.413Z,9864
2018-08-21T06:21:19.120Z,9948
2018-08-21T06:22:29.122Z,10024
2018-08-21T06:23:39.104Z,10176
2018-08-21T06:24:49.225Z,10360
2018-08-21T06:25:59.363Z,10324
2018-08-21T06:27:09.072Z,10332
2018-08-21T06:28:19.118Z,10488
2018-08-21T06:29:29.097Z,10680
2018-08-21T06:30:39.065Z,10820
2018-08-21T06:31:49.047Z,11128
2018-08-21T06:32:58.844Z,11388
2018-08-21T06:34:08.816Z,11484
2018-08-21T06:35:18.804Z,11360
2018-08-21T06:36:28.899Z,11276
2018-08-21T06:37:38.660Z,11740
2018-08-21T06:38:48.647Z,12496
2018-08-21T06:39:58.841Z,12976
2018-08-21T06:41:08.836Z,13076
2018-08-21T06:42:18.810Z,13060
2018-08-21T06:43:28.273Z,12876
2018-08-21T06:44:37.993Z,13184
2018-08-21T06:45:47.706Z,13240
2018-08-21T06:46:57.670Z,12840
2018-08-21T06:48:07.644Z,12112
2018-08-21T06:49:17.643Z,12064
2018-08-21T06:50:27.618Z,12176
2018-08-21T06:51:37.388Z,12316
2018-08-21T06:52:47.368Z,12292
2018-08-21T06:53:57.477Z,12212
2018-08-21T06:55:07.471Z,12132
2018-08-21T06:56:17.472Z,12188
2018-08-21T06:57:27.180Z,12232
2018-08-21T06:58:37.168Z,12360
2018-08-21T06:59:47.147Z,12512
2018-08-21T07:00:57.110Z,12620
2018-08-21T07:02:06.589Z,12716
2018-08-21T07:03:16.313Z,12808
2018-08-21T07:04:26.042Z,12908
2018-08-21T07:05:35.761Z,12996
2018-08-21T07:06:45.732Z,12968
2018-08-21T07:07:55.701Z,13092
2018-08-21T07:09:05.690Z,13184
2018-08-21T07:10:15.669Z,13232
2018-08-21T07:11:25.394Z,13300
2018-08-21T07:12:35.132Z,13376
2018-08-21T07:13:45.115Z,13412
2018-08-21T07:14:55.093Z,13460
2018-08-21T07:16:04.800Z,13556
2018-08-21T07:17:14.512Z,13672
2018-08-21T07:18:24.240Z,13768
2018-08-21T07:19:34.221Z,13840
2018-08-21T07:20:44.229Z,13892
2018-08-21T07:21:53.955Z,13944
2018-08-21T07:23:03.665Z,13964
2018-08-21T07:24:13.689Z,14136
2018-08-21T07:25:23.669Z,14212
2018-08-21T07:26:33.647Z,14284
2018-08-21T07:27:43.645Z,14356
2018-08-21T07:28:53.411Z,14416
2018-08-21T07:30:03.156Z,14488
2018-08-21T07:31:13.149Z,14580
2018-08-21T07:32:22.870Z,14700
2018-08-21T07:33:32.862Z,14824
2018-08-21T07:34:42.628Z,14824
2018-08-21T07:35:53.070Z,14856
2018-08-21T07:37:02.796Z,14936
2018-08-21T07:38:12.510Z,15008
2018-08-21T07:39:22.227Z,15104
2018-08-21T07:40:32.218Z,15196
2018-08-21T07:41:41.991Z,15292
2018-08-21T07:42:51.449Z,15396
2018-08-21T07:44:01.423Z,15496
2018-08-21T07:45:11.433Z,15600
2018-08-21T07:46:21.246Z,15688
2018-08-21T07:47:31.332Z,15784
2018-08-21T07:48:41.075Z,15924
2018-08-21T07:49:50.776Z,16032
2018-08-21T07:51:00.750Z,16224
2018-08-21T07:52:10.744Z,16412
2018-08-21T07:53:20.462Z,16552
2018-08-21T07:54:30.441Z,16672
2018-08-21T07:55:40.399Z,16788
2018-08-21T07:56:50.457Z,16936
2018-08-21T07:58:00.251Z,17072
2018-08-21T07:59:10.357Z,17292
2018-08-21T08:00:20.092Z,17700
2018-08-21T08:01:29.852Z,17748
2018-08-21T08:02:39.325Z,17776
2018-08-21T08:03:49.057Z,17924
2018-08-21T08:04:59.093Z,17992
2018-08-21T08:06:08.888Z,18100
2018-08-21T08:07:18.761Z,18284
2018-08-21T08:08:28.847Z,17740
2018-08-21T08:09:38.840Z,18376
2018-08-21T08:10:48.820Z,18460
2018-08-21T08:11:58.855Z,18500
2018-08-21T08:13:08.592Z,18540
2018-08-21T08:14:18.587Z,18672
2018-08-21T08:15:28.573Z,18804
2018-08-21T08:16:38.593Z,18928
2018-08-21T08:17:48.317Z,19116
2018-08-21T08:18:58.410Z,19412
2018-08-21T08:20:08.548Z,20160
2018-08-21T08:21:18.021Z,20640
2018-08-21T08:22:27.736Z,20800
2018-08-21T08:23:38.176Z,20768
2018-08-21T08:24:48.233Z,22912
2018-08-21T08:25:58.212Z,34112
2018-08-21T08:27:07.668Z,39168
2018-08-21T08:28:17.695Z,39552
2018-08-21T08:29:27.678Z,38816
2018-08-21T08:30:37.669Z,40288
2018-08-21T08:31:47.392Z,42176
2018-08-21T08:32:57.593Z,43712
2018-08-21T08:34:07.567Z,44832
2018-08-21T08:35:17.282Z,43360
2018-08-21T08:36:27.000Z,44192
2018-08-21T08:37:36.998Z,48224
2018-08-21T08:38:47.000Z,50912
2018-08-21T08:39:56.728Z,52160
2018-08-21T08:41:06.190Z,51392
2018-08-21T08:42:16.178Z,51136
2018-08-21T08:43:25.909Z,53408
2018-08-21T08:44:35.357Z,52384
2018-08-21T08:45:45.358Z,54112
2018-08-21T08:46:55.347Z,52064
2018-08-21T08:48:05.077Z,45536
2018-08-21T08:49:15.087Z,37952
2018-08-21T08:50:25.094Z,53984
2018-08-21T08:51:34.805Z,54368
2018-08-21T08:52:44.816Z,54304
2018-08-21T08:53:54.542Z,52128
2018-08-21T08:55:04.327Z,53120
2018-08-21T08:56:14.308Z,51968
2018-08-21T08:57:24.283Z,51040
2018-08-21T08:58:34.318Z,51520
2018-08-21T08:59:44.521Z,54688
2018-08-21T09:00:54.233Z,55072
2018-08-21T09:02:03.700Z,55424
2018-08-21T09:03:13.674Z,55840
2018-08-21T09:04:23.442Z,56000
2018-08-21T09:05:33.566Z,57920
2018-08-21T09:06:43.288Z,57600
2018-08-21T09:07:53.262Z,57984
2018-08-21T09:09:03.478Z,58560
2018-08-21T09:10:13.486Z,57088
2018-08-21T09:11:23.509Z,57376
2018-08-21T09:12:33.221Z,58080
2018-08-21T09:13:43.195Z,58752
2018-08-21T09:14:53.194Z,59520
2018-08-21T09:16:03.190Z,61120
2018-08-21T09:17:12.915Z,64000
2018-08-21T09:18:22.912Z,63648
2018-08-21T09:19:32.920Z,63872
2018-08-21T09:20:42.681Z,62752
2018-08-21T09:21:52.666Z,63072
2018-08-21T09:23:02.656Z,64000
2018-08-21T09:24:12.112Z,64320
2018-08-21T09:25:22.099Z,65824
2018-08-21T09:26:31.842Z,66176
2018-08-21T09:27:41.463Z,68640
2018-08-21T09:28:51.029Z,74304
2018-08-21T09:30:00.752Z,77504
2018-08-21T09:31:10.748Z,76256
2018-08-21T09:32:20.768Z,73056
2018-08-21T09:33:30.480Z,76544
2018-08-21T09:34:40.471Z,80992
2018-08-21T09:35:50.457Z,81472
2018-08-21T09:37:00.192Z,84192
2018-08-21T09:38:10.087Z,37440
2018-08-21T09:39:19.989Z,82208
2018-08-21T09:40:29.465Z,84160
2018-08-21T09:41:39.195Z,56128
2018-08-21T09:42:49.192Z,88224
2018-08-21T09:43:58.909Z,34976
2018-08-21T09:45:08.952Z,43744
2018-08-21T09:46:18.954Z,80672
2018-08-21T09:47:28.956Z,90912
2018-08-21T09:48:38.946Z,92288
2018-08-21T09:49:48.933Z,78272
2018-08-21T09:50:58.138Z,100032
2018-08-21T09:52:08.138Z,101728
2018-08-21T09:53:18.135Z,49248
2018-08-21T09:54:28.166Z,39360
2018-08-21T09:55:38.148Z,51648
2018-08-21T09:56:48.131Z,40320
2018-08-21T09:57:58.117Z,34880
2018-08-21T09:59:07.893Z,32736
2018-08-21T10:00:17.954Z,33440
2018-08-21T10:01:28.028Z,36352
2018-08-21T10:02:38.033Z,52960
2018-08-21T10:03:47.835Z,33696
2018-08-21T10:04:57.847Z,34464
2018-08-21T10:06:07.936Z,36352
2018-08-21T10:07:17.950Z,38944
2018-08-21T10:08:27.694Z,37856
2018-08-21T10:09:37.678Z,36256
2018-08-21T10:10:47.454Z,38144
2018-08-21T10:11:57.176Z,68224
2018-08-21T10:13:07.169Z,32896
2018-08-21T10:14:17.144Z,32576
2018-08-21T10:15:27.135Z,33856
2018-08-21T10:16:36.884Z,36096
2018-08-21T10:17:46.865Z,38528
2018-08-21T10:18:56.908Z,58816
2018-08-21T10:20:06.887Z,64544
2018-08-21T10:21:16.603Z,111552
2018-08-21T10:22:26.588Z,109824
2018-08-21T10:23:36.328Z,110336
2018-08-21T10:24:46.322Z,110144
2018-08-21T10:25:56.326Z,107264
2018-08-21T10:27:06.316Z,105120
2018-08-21T10:28:15.834Z,105344
2018-08-21T10:29:25.814Z,107968
2018-08-21T10:30:35.800Z,109376
2018-08-21T10:31:45.530Z,104864
2018-08-21T10:32:55.259Z,107552
2018-08-21T10:34:05.239Z,51584
2018-08-21T10:35:15.009Z,40064
2018-08-21T10:36:24.754Z,78176
2018-08-21T10:37:34.755Z,108736
2018-08-21T10:38:44.730Z,103776
2018-08-21T10:39:54.441Z,100672
2018-08-21T10:41:04.448Z,102496
2018-08-21T10:42:14.423Z,104224
2018-08-21T10:43:24.161Z,103008
2018-08-21T10:44:34.138Z,110336
2018-08-21T10:45:43.876Z,117696
2018-08-21T10:46:53.864Z,119968
2018-08-21T10:48:03.876Z,121024
2018-08-21T10:49:13.861Z,109440
2018-08-21T10:50:23.837Z,108640
2018-08-21T10:51:33.622Z,111552
2018-08-21T10:52:43.656Z,107104
2018-08-21T10:53:53.392Z,110656
2018-08-21T10:55:03.389Z,116544
2018-08-21T10:56:13.372Z,115936
2018-08-21T10:57:23.370Z,110976
2018-08-21T10:58:33.354Z,113216
2018-08-21T10:59:43.356Z,113280
2018-08-21T11:00:53.366Z,105504
2018-08-21T11:02:03.590Z,116064
2018-08-21T11:03:13.086Z,115680
2018-08-21T11:04:23.083Z,106080
2018-08-21T11:05:33.361Z,106208
2018-08-21T11:06:43.328Z,37024
2018-08-21T11:07:53.314Z,113984
2018-08-21T11:09:03.334Z,116096
2018-08-21T11:10:13.327Z,115264
2018-08-21T11:11:23.054Z,110272
2018-08-21T11:12:33.292Z,106336
2018-08-21T11:13:43.239Z,106368
2018-08-21T11:14:53.229Z,109728
2018-08-21T11:16:02.961Z,108960
2018-08-21T11:17:12.738Z,91104
2018-08-21T11:18:22.917Z,103744
2018-08-21T11:19:32.393Z,113856
2018-08-21T11:20:42.375Z,122624
2018-08-21T11:21:52.105Z,122784
2018-08-21T11:23:02.117Z,57664
2018-08-21T11:24:12.440Z,40544
2018-08-21T11:25:22.494Z,125728
2018-08-21T11:26:32.231Z,39808
2018-08-21T11:27:42.266Z,37984
2018-08-21T11:28:52.019Z,125312
2018-08-21T11:30:02.438Z,127136
2018-08-21T11:31:12.427Z,123328
2018-08-21T11:32:22.178Z,114400
2018-08-21T11:33:31.902Z,115648
2018-08-21T11:34:41.913Z,116576
2018-08-21T11:35:51.917Z,122208
2018-08-21T11:37:01.945Z,123424
2018-08-21T11:38:11.989Z,119520
2018-08-21T11:39:21.982Z,118976
2018-08-21T11:40:31.707Z,123968
2018-08-21T11:41:41.726Z,114112
2018-08-21T11:42:51.740Z,121888
2018-08-21T11:44:01.743Z,111904
2018-08-21T11:45:11.487Z,127712
2018-08-21T11:46:21.203Z,117504
2018-08-21T11:47:31.205Z,115328
2018-08-21T11:48:41.214Z,128192
2018-08-21T11:49:51.261Z,114304
2018-08-21T11:51:00.986Z,89152
2018-08-21T11:52:10.956Z,40128
2018-08-21T11:53:20.961Z,110048
2018-08-21T11:54:30.955Z,117056
2018-08-21T11:55:40.939Z,115840
2018-08-21T11:56:50.933Z,111904
2018-08-21T11:58:00.920Z,117056
2018-08-21T11:59:10.927Z,124640
2018-08-21T12:00:20.940Z,123584
2018-08-21T12:01:30.681Z,121024
2018-08-21T12:02:40.423Z,121344
2018-08-21T12:03:50.416Z,121408
2018-08-21T12:05:00.423Z,126208
2018-08-21T12:06:10.427Z,124128
2018-08-21T12:07:19.905Z,117792
2018-08-21T12:08:29.890Z,123424
2018-08-21T12:09:39.888Z,129152
2018-08-21T12:10:49.627Z,120448
2018-08-21T12:11:59.595Z,120768
2018-08-21T12:13:09.538Z,121152
2018-08-21T12:14:18.998Z,119392
2018-08-21T12:15:28.721Z,104416
2018-08-21T12:16:38.514Z,122720
2018-08-21T12:17:48.496Z,56128
2018-08-21T12:18:58.504Z,129504
2018-08-21T12:20:08.257Z,131456
2018-08-21T12:21:18.009Z,132288
2018-08-21T12:22:28.014Z,133568
2018-08-21T12:23:37.876Z,128672
2018-08-21T12:24:47.620Z,132288
2018-08-21T12:25:57.619Z,132096
2018-08-21T12:27:07.094Z,121920
2018-08-21T12:28:16.841Z,135968
2018-08-21T12:29:26.826Z,134880
2018-08-21T12:30:36.578Z,117056
2018-08-21T12:31:46.578Z,123712
2018-08-21T12:32:56.586Z,123328
2018-08-21T12:34:06.270Z,119104
2018-08-21T12:35:16.438Z,97216
2018-08-21T12:36:26.524Z,126176
2018-08-21T12:37:36.543Z,130304
2018-08-21T12:38:46.553Z,130880
2018-08-21T12:39:56.595Z,137984
2018-08-21T12:41:06.600Z,126624
2018-08-21T12:42:16.613Z,120800
2018-08-21T12:43:26.603Z,128640
2018-08-21T12:44:36.673Z,120352
2018-08-21T12:45:46.423Z,122976
2018-08-21T12:46:56.425Z,125248
2018-08-21T12:48:06.651Z,125536
2018-08-21T12:49:16.386Z,131200
2018-08-21T12:50:26.791Z,123808
2018-08-21T12:51:36.959Z,129760
2018-08-21T12:52:46.715Z,125728
2018-08-21T12:53:56.712Z,115424
2018-08-21T12:55:06.735Z,129280
2018-08-21T12:56:16.725Z,129056
2018-08-21T12:57:26.200Z,124480
2018-08-21T12:58:36.204Z,128256
2018-08-21T12:59:46.212Z,126176
2018-08-21T13:00:55.957Z,122080
2018-08-21T13:02:05.972Z,116672
2018-08-21T13:03:15.973Z,110816
2018-08-21T13:04:25.990Z,107008
2018-08-21T13:05:35.987Z,115360
2018-08-21T13:06:45.976Z,138912
2018-08-21T13:07:55.966Z,131136
2018-08-21T13:09:05.986Z,130624
2018-08-21T13:10:16.028Z,131776
2018-08-21T13:11:25.786Z,124448
2018-08-21T13:12:35.515Z,126176
2018-08-21T13:13:45.735Z,123392
2018-08-21T13:14:55.482Z,123776
2018-08-21T13:16:05.503Z,131232
2018-08-21T13:17:15.516Z,123072
2018-08-21T13:18:25.525Z,123584
2018-08-21T13:19:35.532Z,134944
2018-08-21T13:20:45.518Z,123488
2018-08-21T13:21:59.991Z,118880
2018-08-21T13:23:10.425Z,131104
2018-08-21T13:24:20.421Z,115328
2018-08-21T13:25:30.424Z,114464
2018-08-21T13:26:40.149Z,120736
2018-08-21T13:27:49.894Z,128320
2018-08-21T13:28:59.882Z,133216
2018-08-21T13:30:09.887Z,121536
2018-08-21T13:31:19.871Z,129760
2018-08-21T13:32:29.342Z,126176
2018-08-21T13:33:39.335Z,122432
2018-08-21T13:34:49.319Z,127328
2018-08-21T13:35:59.603Z,121504
2018-08-21T13:37:09.924Z,114880
2018-08-21T13:38:19.904Z,121600
2018-08-21T13:39:29.625Z,112864
2018-08-21T13:40:39.339Z,121696
2018-08-21T13:41:49.378Z,127296
2018-08-21T13:42:59.444Z,125632
2018-08-21T13:44:09.508Z,128704
2018-08-21T13:45:19.603Z,136576
2018-08-21T13:46:29.580Z,134208
2018-08-21T13:47:39.308Z,128352
2018-08-21T13:48:49.315Z,130144
2018-08-21T13:49:59.307Z,126912
2018-08-21T13:51:09.038Z,118176
2018-08-21T13:52:18.762Z,123328
2018-08-21T13:53:28.745Z,118336
2018-08-21T13:54:38.725Z,119904
2018-08-21T13:55:48.446Z,119008
2018-08-21T13:56:58.444Z,103488
2018-08-21T13:58:08.446Z,104864
2018-08-21T13:59:18.440Z,107552
2018-08-21T14:00:28.175Z,115424
2018-08-21T14:01:37.898Z,124736
2018-08-21T14:02:47.900Z,128032
2018-08-21T14:03:57.889Z,122976
2018-08-21T14:05:07.886Z,114112
2018-08-21T14:06:17.888Z,120352
2018-08-21T14:07:27.892Z,101728
2018-08-21T14:08:37.638Z,103968
2018-08-21T14:09:47.367Z,92896
2018-08-21T14:10:57.376Z,87552
2018-08-21T14:12:07.119Z,111456
2018-08-21T14:13:16.603Z,104032
2018-08-21T14:14:26.596Z,106080
2018-08-21T14:15:36.063Z,109952
2018-08-21T14:16:45.541Z,110464
2018-08-21T14:17:55.524Z,110048
2018-08-21T14:19:05.515Z,108448
2018-08-21T14:20:15.252Z,111104
2018-08-21T14:21:25.264Z,108672
2018-08-21T14:22:35.273Z,107584
2018-08-21T14:23:44.752Z,113120
2018-08-21T14:24:54.483Z,110880
2018-08-21T14:26:04.212Z,104736
2018-08-21T14:27:13.932Z,112704
2018-08-21T14:28:23.921Z,107008
2018-08-21T14:29:33.907Z,105984
2018-08-21T14:30:43.920Z,101184
2018-08-21T14:31:53.662Z,109024
2018-08-21T14:33:03.656Z,105504
2018-08-21T14:34:13.668Z,102304
2018-08-21T14:35:23.917Z,116768
2018-08-21T14:36:33.924Z,110304
2018-08-21T14:37:43.968Z,108928
2018-08-21T14:38:54.150Z,104064
2018-08-21T14:40:04.245Z,45088
2018-08-21T14:41:13.978Z,34816
2018-08-21T14:42:23.711Z,88672
2018-08-21T14:43:33.791Z,95648
2018-08-21T14:44:43.758Z,98560
2018-08-21T14:45:54.064Z,100480
2018-08-21T14:47:04.429Z,109376
2018-08-21T14:48:14.406Z,106656
2018-08-21T14:49:23.894Z,105376
2018-08-21T14:50:34.030Z,105888
2018-08-21T14:51:43.895Z,107776
2018-08-21T14:52:54.418Z,99360
2018-08-21T14:54:04.476Z,102528
2018-08-21T14:55:14.325Z,104320
2018-08-21T14:56:24.334Z,98880
2018-08-21T14:57:34.831Z,100736
2018-08-21T14:58:44.558Z,100224
2018-08-21T14:59:54.554Z,96416
2018-08-21T15:01:04.542Z,95840
2018-08-21T15:02:14.010Z,98304
2018-08-21T15:03:23.994Z,98112
2018-08-21T15:04:33.735Z,95584
2018-08-21T15:05:43.728Z,100384
2018-08-21T15:06:53.464Z,92096
2018-08-21T15:08:03.198Z,103008
2018-08-21T15:09:13.187Z,96448
2018-08-21T15:10:23.023Z,101184
2018-08-21T15:11:32.615Z,96192
2018-08-21T15:12:42.660Z,101952
2018-08-21T15:13:52.385Z,97664
2018-08-21T15:15:02.135Z,94880
2018-08-21T15:16:12.122Z,94368
2018-08-21T15:17:21.830Z,94976
2018-08-21T15:18:31.670Z,91904
2018-08-21T15:19:41.755Z,94976
2018-08-21T15:20:51.752Z,91104
2018-08-21T15:22:01.508Z,88992
2018-08-21T15:23:11.232Z,91648
2018-08-21T15:24:20.960Z,86976
2018-08-21T15:25:30.949Z,93152
2018-08-21T15:26:40.993Z,89024